北九州空港の過去48時間の天気

北九州空港 (Kitakyushu)

現在時刻: 8/6 07:55 JST (8/5 22:55 UTC) 以下の時間は現地時間です。

過去48時間のMETAR気象情報
時間 風向 風速(m/s) 視程 気温(℃) 湿度(%) 気圧(hPa) 天気現象
6 07:00 南南東 3 10km以上 27 89 1013
6 06:00 南東 2 10km以上 27 89 1013
6 05:00 不定 1 10km以上 26 94 1013
6 04:00 3 10km以上 26 94 1013
6 03:00 東北東 3 10km以上 26 94 1013
6 02:00 北東 4 10km以上 27 89 1013
6 01:00 4 10km以上 26 94 1014
6 00:00 3 10km以上 26 94 1014
5 23:00 5 10km以上 27 89 1014
5 22:00 5 10km以上 27 89 1015
5 21:00 東北東 5 10km以上 27 89 1015
5 20:00 東北東 5 8000m 27 89 1015
5 19:00 3 8000m 27 89 1014
5 18:00 不定 2 8000m 28 84 1014
5 17:00 不定 2 8000m 28 84 1014
5 16:00 4 9000m 29 79 1014
5 15:00 4 8000m 29 79 1014
5 14:00 4 7000m 29 79 1015
5 13:00 4 7000m 29 84 1015
5 12:00 5 6000m 29 79 1016
5 11:00 4 6000m 28 84 1016
5 10:21 6 5000m 28 84 1016 もや
5 10:00 5 5000m 28 84 1016 もや
5 09:00 6 5000m 28 84 1016 もや
5 08:00 東北東 4 6000m 28 84 1016
5 07:00 4 4500m 27 89 1016 もや
5 06:48 東北東 4 4500m 27 89 1016 もや
5 06:00 東北東 5 4000m 26 94 1015 もや
5 05:00 東北東 5 3500m 26 89 1015 もや
5 04:27 東北東 4 3500m 26 94 1015 もや
5 04:00 東北東 5 4000m 26 89 1015 もや
5 03:00 4 4000m 26 94 1015 もや
5 02:00 3 4000m 26 94 1015 もや
5 01:00 5 4000m 26 94 1015 もや
5 00:00 東北東 6 4000m 27 89 1015 もや
4 23:00 東北東 6 6000m 27 89 1015
4 22:00 東北東 5 8000m 27 89 1015
4 21:00 東北東 2 8000m 28 89 1014
4 20:00 不定 1 8000m 28 89 1014
4 19:00 不定 2 8000m 28 84 1013
4 18:00 不定 2 8000m 28 84 1013
4 17:00 不定 2 8000m 29 79 1013
4 16:00 不定 2 6000m 29 79 1013
4 15:00 4 6000m 29 79 1013
4 14:00 4 6000m 29 79 1014
4 13:00 4 6000m 29 79 1014
4 12:00 5 6000m 29 79 1014
4 11:00 3 6000m 29 79 1015
4 10:00 東南東 3 6000m 29 79 1015
4 09:00 南南東 3 6000m 28 84 1014
4 08:00 南東 2 5000m 28 84 1014 もや
RJFR 052200Z 16006KT 9999 FEW008 SCT/// 27/25 Q1013
RJFR 052100Z 13004KT 070V190 9999 FEW008 SCT/// 27/25 Q1013
RJFR 052000Z VRB02KT 9999 FEW030 SCT/// 26/25 Q1013
RJFR 051900Z 08006KT 320V130 9999 FEW030 SCT/// 26/25 Q1013
RJFR 051800Z 06006KT 9999 FEW005 BKN/// 26/25 Q1013
RJFR 051700Z 05007KT 9999 FEW005 SCT050 BKN/// 27/25 Q1013
RJFR 051600Z 08008KT 9999 FEW005 SCT050 BKN/// 26/25 Q1014
RJFR 051500Z VRB06KT 9999 FEW020 BKN/// 26/25 Q1014
RJFR 051400Z 08010KT 9999 FEW006 BKN/// 27/25 Q1014
RJFR 051300Z 08010KT 050V110 9999 FEW020 BKN/// 27/25 Q1015
RJFR 051200Z 07009KT 9999 FEW020 BKN/// 27/25 Q1015
RJFR 051100Z 07009KT 8000 FEW020 BKN/// 27/25 Q1015
RJFR 051000Z 08005KT 020V180 8000 FEW020 BKN/// 27/25 Q1014
RJFR 050900Z VRB04KT 8000 FEW015 BKN/// 28/25 Q1014
RJFR 050800Z VRB03KT 8000 FEW015 BKN/// 28/25 Q1014
RJFR 050700Z VRB08KT 9000 FEW015 BKN/// 29/25 Q1014
RJFR 050600Z 09008KT 030V180 8000 FEW015 SCT/// 29/25 Q1014
RJFR 050500Z 08007KT 010V130 7000 FEW010 SCT/// 29/25 Q1015
RJFR 050400Z 09007KT 010V140 7000 FEW010 SCT/// 29/26 Q1015
RJFR 050300Z 08009KT 060V120 6000 FEW005 SCT008 29/25 Q1016
RJFR 050200Z 08007KT 060V140 6000 FEW005 BKN008 28/25 Q1016
RJFR 050121Z 08011KT 5000 BR FEW004 SCT006 28/25 Q1016 RMK 1ST004 4ST006 A3001
RJFR 050100Z 08009KT 020V140 5000 BR FEW004 BKN006 28/25 Q1016
RJFR 050000Z 08011KT 5000 BR FEW005 SCT010 28/25 Q1016
RJFR 042300Z 06008KT 6000 FEW006 SCT010 28/25 Q1016
RJFR 042200Z 08007KT 010V160 4500 BR FEW005 SCT010 BKN/// 27/25 Q1016
RJFR 042148Z 07008KT 040V110 4500 BR FEW006 BKN010 27/25 Q1016 RMK 1ST006 5ST010 A3001
RJFR 042100Z 07009KT 4000 BR SCT005 BKN008 26/25 Q1015
RJFR 042000Z 07010KT 3500 BR FEW005 BKN008 26/24 Q1015
RJFR 041927Z 07008KT 3500 BR FEW006 BKN008 26/25 Q1015 RMK 2ST006 5ST008 A3000
RJFR 041900Z 06009KT 4000 BR FEW006 SCT010 26/24 Q1015
RJFR 041800Z 08008KT 4000 BR FEW006 BKN/// 26/25 Q1015
RJFR 041700Z VRB06KT 4000 BR FEW009 SCT/// 26/25 Q1015
RJFR 041600Z 08009KT 050V120 4000 BR FEW004 BKN/// 26/25 Q1015
RJFR 041500Z 07012KT 4000 BR NSC 27/25 Q1015
RJFR 041400Z 07012KT 6000 NSC 27/25 Q1015
RJFR 041300Z 06010KT 8000 NSC 27/25 Q1015
RJFR 041200Z 06003KT 8000 NSC 28/26 Q1014
RJFR 041100Z VRB02KT 8000 FEW020 SCT/// 28/26 Q1014
RJFR 041000Z VRB03KT 8000 FEW020 SCT/// 28/25 Q1013
RJFR 040900Z VRB03KT 8000 FEW020 28/25 Q1013
RJFR 040800Z VRB03KT 8000 FEW020 29/25 Q1013
RJFR 040700Z VRB04KT 6000 NSC 29/25 Q1013
RJFR 040600Z VRB07KT 6000 NSC 29/25 Q1013
RJFR 040500Z VRB07KT 6000 NSC 29/25 Q1014
RJFR 040400Z VRB07KT 6000 NSC 29/25 Q1014
RJFR 040300Z 08010KT 050V130 6000 NSC 29/25 Q1014
RJFR 040200Z VRB06KT 6000 NSC 29/25 Q1015
RJFR 040100Z 12005KT 060V160 6000 FEW030 29/25 Q1015
RJFR 040000Z 15006KT 6000 FEW020 28/25 Q1014
RJFR 032300Z 14004KT 5000 BR FEW010 28/25 Q1014